sensor_id;sensor_type;location;lat;lon;timestamp;P1;durP1;ratioP1;P2;durP2;ratioP2
70320;SDS011;61127;55.826;37.046;2022-07-21T00:01:50;0.97;;;0.60;;
70320;SDS011;61127;55.826;37.046;2022-07-21T00:04:17;0.68;;;0.60;;
70320;SDS011;61127;55.826;37.046;2022-07-21T00:06:44;0.73;;;0.70;;
70320;SDS011;61127;55.826;37.046;2022-07-21T00:09:11;0.60;;;0.60;;
70320;SDS011;61127;55.826;37.046;2022-07-21T00:11:39;1.30;;;0.60;;
70320;SDS011;61127;55.826;37.046;2022-07-21T00:14:06;0.93;;;0.60;;
70320;SDS011;61127;55.826;37.046;2022-07-21T00:16:35;1.00;;;0.60;;
70320;SDS011;61127;55.826;37.046;2022-07-21T00:19:02;1.35;;;0.60;;
70320;SDS011;61127;55.826;37.046;2022-07-21T00:21:29;2.42;;;0.80;;
70320;SDS011;61127;55.826;37.046;2022-07-21T00:23:55;1.90;;;0.60;;
70320;SDS011;61127;55.826;37.046;2022-07-21T00:26:22;0.93;;;0.73;;
70320;SDS011;61127;55.826;37.046;2022-07-21T00:28:48;1.30;;;0.70;;
70320;SDS011;61127;55.826;37.046;2022-07-21T00:31:15;4.20;;;0.80;;
70320;SDS011;61127;55.826;37.046;2022-07-21T00:33:42;2.05;;;0.88;;
70320;SDS011;61127;55.826;37.046;2022-07-21T00:36:08;2.38;;;0.70;;
70320;SDS011;61127;55.826;37.046;2022-07-21T00:38:34;1.83;;;0.83;;
70320;SDS011;61127;55.826;37.046;2022-07-21T00:41:00;1.42;;;0.70;;
70320;SDS011;61127;55.826;37.046;2022-07-21T00:43:28;2.15;;;0.73;;
70320;SDS011;61127;55.826;37.046;2022-07-21T00:45:54;0.80;;;0.57;;
70320;SDS011;61127;55.826;37.046;2022-07-21T00:48:21;4.43;;;0.70;;
70320;SDS011;61127;55.826;37.046;2022-07-21T00:50:47;2.72;;;0.60;;
70320;SDS011;61127;55.826;37.046;2022-07-21T00:55:48;2.80;;;0.55;;
70320;SDS011;61127;55.826;37.046;2022-07-21T00:58:14;1.00;;;0.50;;
70320;SDS011;61127;55.826;37.046;2022-07-21T01:00:40;3.40;;;0.57;;
70320;SDS011;61127;55.826;37.046;2022-07-21T01:03:07;3.58;;;0.80;;
70320;SDS011;61127;55.826;37.046;2022-07-21T01:05:35;1.98;;;0.75;;
70320;SDS011;61127;55.826;37.046;2022-07-21T01:08:02;2.78;;;0.75;;
70320;SDS011;61127;55.826;37.046;2022-07-21T01:10:29;1.70;;;0.70;;
70320;SDS011;61127;55.826;37.046;2022-07-21T01:12:57;1.30;;;0.67;;
70320;SDS011;61127;55.826;37.046;2022-07-21T01:15:25;2.03;;;0.70;;
70320;SDS011;61127;55.826;37.046;2022-07-21T01:17:51;1.60;;;0.80;;
70320;SDS011;61127;55.826;37.046;2022-07-21T01:20:19;1.45;;;0.80;;
70320;SDS011;61127;55.826;37.046;2022-07-21T01:22:48;1.20;;;0.77;;
70320;SDS011;61127;55.826;37.046;2022-07-21T01:25:17;2.17;;;0.80;;
70320;SDS011;61127;55.826;37.046;2022-07-21T01:27:44;2.88;;;0.90;;
70320;SDS011;61127;55.826;37.046;2022-07-21T01:30:10;1.55;;;0.70;;
70320;SDS011;61127;55.826;37.046;2022-07-21T01:35:08;1.85;;;1.05;;
70320;SDS011;61127;55.826;37.046;2022-07-21T01:37:37;3.47;;;0.80;;
70320;SDS011;61127;55.826;37.046;2022-07-21T01:40:08;1.25;;;0.75;;
70320;SDS011;61127;55.826;37.046;2022-07-21T01:42:54;2.30;;;0.90;;
70320;SDS011;61127;55.826;37.046;2022-07-21T01:45:20;2.90;;;0.70;;
70320;SDS011;61127;55.826;37.046;2022-07-21T01:47:48;1.35;;;1.00;;
70320;SDS011;61127;55.826;37.046;2022-07-21T01:50:14;3.93;;;0.90;;
70320;SDS011;61127;55.826;37.046;2022-07-21T01:52:44;2.72;;;0.98;;
70320;SDS011;61127;55.826;37.046;2022-07-21T01:55:11;1.25;;;0.70;;
70320;SDS011;61127;55.826;37.046;2022-07-21T01:57:38;1.20;;;0.93;;
70320;SDS011;61127;55.826;37.046;2022-07-21T02:00:05;2.42;;;0.80;;
70320;SDS011;61127;55.826;37.046;2022-07-21T02:02:33;2.27;;;0.70;;
70320;SDS011;61127;55.826;37.046;2022-07-21T02:04:59;1.60;;;0.80;;
70320;SDS011;61127;55.826;37.046;2022-07-21T02:07:25;0.85;;;0.70;;
70320;SDS011;61127;55.826;37.046;2022-07-21T02:09:51;2.05;;;0.82;;
70320;SDS011;61127;55.826;37.046;2022-07-21T02:12:19;1.90;;;0.80;;
70320;SDS011;61127;55.826;37.046;2022-07-21T02:14:45;1.25;;;0.70;;
70320;SDS011;61127;55.826;37.046;2022-07-21T02:17:11;1.10;;;0.70;;
70320;SDS011;61127;55.826;37.046;2022-07-21T02:19:38;3.22;;;0.88;;
70320;SDS011;61127;55.826;37.046;2022-07-21T02:22:05;1.33;;;0.70;;
70320;SDS011;61127;55.826;37.046;2022-07-21T02:24:31;1.75;;;0.90;;
70320;SDS011;61127;55.826;37.046;2022-07-21T02:26:57;1.75;;;0.82;;
70320;SDS011;61127;55.826;37.046;2022-07-21T02:29:24;1.73;;;0.80;;
70320;SDS011;61127;55.826;37.046;2022-07-21T02:31:50;1.50;;;0.90;;
70320;SDS011;61127;55.826;37.046;2022-07-21T02:34:16;1.38;;;0.80;;
70320;SDS011;61127;55.826;37.046;2022-07-21T02:36:42;0.82;;;0.80;;
70320;SDS011;61127;55.826;37.046;2022-07-21T02:39:08;1.42;;;0.80;;
70320;SDS011;61127;55.826;37.046;2022-07-21T02:41:34;3.53;;;0.90;;
70320;SDS011;61127;55.826;37.046;2022-07-21T02:44:01;3.85;;;0.90;;
70320;SDS011;61127;55.826;37.046;2022-07-21T02:46:27;1.48;;;0.80;;
70320;SDS011;61127;55.826;37.046;2022-07-21T02:48:53;1.80;;;1.00;;
70320;SDS011;61127;55.826;37.046;2022-07-21T02:51:19;1.63;;;0.90;;
70320;SDS011;61127;55.826;37.046;2022-07-21T02:53:46;1.85;;;0.90;;
70320;SDS011;61127;55.826;37.046;2022-07-21T02:56:12;2.05;;;0.98;;
70320;SDS011;61127;55.826;37.046;2022-07-21T02:58:38;1.30;;;0.90;;
70320;SDS011;61127;55.826;37.046;2022-07-21T03:01:05;1.30;;;0.80;;
70320;SDS011;61127;55.826;37.046;2022-07-21T03:03:34;4.03;;;1.10;;
70320;SDS011;61127;55.826;37.046;2022-07-21T03:06:02;1.90;;;1.00;;
70320;SDS011;61127;55.826;37.046;2022-07-21T03:08:29;1.70;;;1.20;;
70320;SDS011;61127;55.826;37.046;2022-07-21T03:10:55;1.27;;;1.08;;
70320;SDS011;61127;55.826;37.046;2022-07-21T03:13:22;1.80;;;1.30;;
70320;SDS011;61127;55.826;37.046;2022-07-21T03:15:48;2.30;;;1.50;;
70320;SDS011;61127;55.826;37.046;2022-07-21T03:18:14;2.10;;;1.42;;
70320;SDS011;61127;55.826;37.046;2022-07-21T03:20:41;2.15;;;1.60;;
70320;SDS011;61127;55.826;37.046;2022-07-21T03:23:08;2.13;;;1.50;;
70320;SDS011;61127;55.826;37.046;2022-07-21T03:25:35;3.03;;;1.70;;
70320;SDS011;61127;55.826;37.046;2022-07-21T03:28:02;2.92;;;1.63;;
70320;SDS011;61127;55.826;37.046;2022-07-21T03:30:28;2.80;;;1.60;;
70320;SDS011;61127;55.826;37.046;2022-07-21T03:32:56;2.20;;;1.70;;
70320;SDS011;61127;55.826;37.046;2022-07-21T03:35:22;3.97;;;1.58;;
70320;SDS011;61127;55.826;37.046;2022-07-21T03:37:53;3.43;;;1.67;;
70320;SDS011;61127;55.826;37.046;2022-07-21T03:40:22;2.15;;;1.80;;
70320;SDS011;61127;55.826;37.046;2022-07-21T03:42:54;4.25;;;2.05;;
70320;SDS011;61127;55.826;37.046;2022-07-21T03:45:23;3.88;;;2.15;;
70320;SDS011;61127;55.826;37.046;2022-07-21T03:47:50;3.30;;;2.10;;
70320;SDS011;61127;55.826;37.046;2022-07-21T03:50:17;5.17;;;2.10;;
70320;SDS011;61127;55.826;37.046;2022-07-21T03:52:44;3.47;;;2.17;;
70320;SDS011;61127;55.826;37.046;2022-07-21T03:55:11;4.95;;;2.30;;
70320;SDS011;61127;55.826;37.046;2022-07-21T03:57:53;2.83;;;2.20;;
70320;SDS011;61127;55.826;37.046;2022-07-21T04:00:29;3.70;;;2.60;;
70320;SDS011;61127;55.826;37.046;2022-07-21T04:02:57;2.57;;;2.00;;
70320;SDS011;61127;55.826;37.046;2022-07-21T04:05:24;2.53;;;1.90;;
70320;SDS011;61127;55.826;37.046;2022-07-21T04:07:51;2.70;;;1.73;;
70320;SDS011;61127;55.826;37.046;2022-07-21T04:10:19;3.10;;;1.80;;
70320;SDS011;61127;55.826;37.046;2022-07-21T04:12:51;3.58;;;1.92;;
70320;SDS011;61127;55.826;37.046;2022-07-21T04:15:17;5.20;;;1.97;;
70320;SDS011;61127;55.826;37.046;2022-07-21T04:17:43;2.60;;;1.90;;
70320;SDS011;61127;55.826;37.046;2022-07-21T04:20:10;3.53;;;1.70;;
70320;SDS011;61127;55.826;37.046;2022-07-21T04:22:38;3.15;;;2.17;;
70320;SDS011;61127;55.826;37.046;2022-07-21T04:25:05;2.63;;;1.98;;
70320;SDS011;61127;55.826;37.046;2022-07-21T04:27:33;1.93;;;1.60;;
70320;SDS011;61127;55.826;37.046;2022-07-21T04:30:00;3.28;;;1.60;;
70320;SDS011;61127;55.826;37.046;2022-07-21T04:32:28;1.90;;;1.67;;
70320;SDS011;61127;55.826;37.046;2022-07-21T04:34:54;2.28;;;1.63;;
70320;SDS011;61127;55.826;37.046;2022-07-21T04:37:20;1.83;;;1.63;;
70320;SDS011;61127;55.826;37.046;2022-07-21T04:39:47;1.95;;;1.50;;
70320;SDS011;61127;55.826;37.046;2022-07-21T04:44:44;2.55;;;1.58;;
70320;SDS011;61127;55.826;37.046;2022-07-21T04:47:10;3.28;;;1.33;;
70320;SDS011;61127;55.826;37.046;2022-07-21T04:49:36;1.90;;;1.50;;
70320;SDS011;61127;55.826;37.046;2022-07-21T04:52:02;2.40;;;1.83;;
70320;SDS011;61127;55.826;37.046;2022-07-21T04:54:28;1.52;;;1.40;;
70320;SDS011;61127;55.826;37.046;2022-07-21T04:56:54;1.60;;;1.30;;
70320;SDS011;61127;55.826;37.046;2022-07-21T04:59:20;2.57;;;1.30;;
70320;SDS011;61127;55.826;37.046;2022-07-21T05:01:47;1.33;;;1.23;;
70320;SDS011;61127;55.826;37.046;2022-07-21T05:04:14;1.88;;;1.25;;
70320;SDS011;61127;55.826;37.046;2022-07-21T05:06:40;1.10;;;1.00;;
70320;SDS011;61127;55.826;37.046;2022-07-21T05:09:06;1.40;;;1.20;;
70320;SDS011;61127;55.826;37.046;2022-07-21T05:11:32;2.10;;;1.00;;
70320;SDS011;61127;55.826;37.046;2022-07-21T05:14:00;1.20;;;1.00;;
70320;SDS011;61127;55.826;37.046;2022-07-21T05:16:26;2.97;;;1.10;;
70320;SDS011;61127;55.826;37.046;2022-07-21T05:18:52;1.20;;;1.10;;
70320;SDS011;61127;55.826;37.046;2022-07-21T05:21:18;1.27;;;1.10;;
70320;SDS011;61127;55.826;37.046;2022-07-21T05:23:45;1.55;;;1.27;;
70320;SDS011;61127;55.826;37.046;2022-07-21T05:26:11;2.05;;;1.27;;
70320;SDS011;61127;55.826;37.046;2022-07-21T05:28:38;2.45;;;1.10;;
70320;SDS011;61127;55.826;37.046;2022-07-21T05:31:04;2.33;;;1.10;;
70320;SDS011;61127;55.826;37.046;2022-07-21T05:33:31;1.38;;;1.10;;
70320;SDS011;61127;55.826;37.046;2022-07-21T05:35:58;1.10;;;1.00;;
70320;SDS011;61127;55.826;37.046;2022-07-21T05:38:24;3.30;;;1.30;;
70320;SDS011;61127;55.826;37.046;2022-07-21T05:40:50;1.88;;;1.00;;
70320;SDS011;61127;55.826;37.046;2022-07-21T05:43:16;1.20;;;0.97;;
70320;SDS011;61127;55.826;37.046;2022-07-21T05:45:45;0.93;;;0.82;;
70320;SDS011;61127;55.826;37.046;2022-07-21T05:48:11;1.70;;;1.20;;
70320;SDS011;61127;55.826;37.046;2022-07-21T05:50:37;1.00;;;0.90;;
70320;SDS011;61127;55.826;37.046;2022-07-21T05:53:04;2.10;;;1.02;;
70320;SDS011;61127;55.826;37.046;2022-07-21T05:55:31;1.93;;;1.00;;
70320;SDS011;61127;55.826;37.046;2022-07-21T05:57:57;1.10;;;0.98;;
70320;SDS011;61127;55.826;37.046;2022-07-21T06:00:23;1.30;;;1.00;;
70320;SDS011;61127;55.826;37.046;2022-07-21T06:02:50;1.10;;;1.00;;
70320;SDS011;61127;55.826;37.046;2022-07-21T06:05:16;0.80;;;0.70;;
70320;SDS011;61127;55.826;37.046;2022-07-21T06:07:42;2.85;;;0.80;;
70320;SDS011;61127;55.826;37.046;2022-07-21T06:10:09;1.15;;;0.90;;
70320;SDS011;61127;55.826;37.046;2022-07-21T06:12:38;1.60;;;0.95;;
70320;SDS011;61127;55.826;37.046;2022-07-21T06:15:04;1.77;;;0.77;;
70320;SDS011;61127;55.826;37.046;2022-07-21T06:17:30;3.00;;;0.80;;
70320;SDS011;61127;55.826;37.046;2022-07-21T06:19:57;3.10;;;1.00;;
70320;SDS011;61127;55.826;37.046;2022-07-21T06:22:26;0.90;;;0.80;;
70320;SDS011;61127;55.826;37.046;2022-07-21T06:24:53;2.53;;;0.77;;
70320;SDS011;61127;55.826;37.046;2022-07-21T06:27:19;0.80;;;0.80;;
70320;SDS011;61127;55.826;37.046;2022-07-21T06:29:45;1.23;;;0.80;;
70320;SDS011;61127;55.826;37.046;2022-07-21T06:32:16;0.98;;;0.80;;
70320;SDS011;61127;55.826;37.046;2022-07-21T06:34:42;0.95;;;0.70;;
70320;SDS011;61127;55.826;37.046;2022-07-21T06:37:08;2.53;;;0.90;;
70320;SDS011;61127;55.826;37.046;2022-07-21T06:39:35;2.45;;;0.80;;
70320;SDS011;61127;55.826;37.046;2022-07-21T06:42:08;0.60;;;0.60;;
70320;SDS011;61127;55.826;37.046;2022-07-21T06:44:36;1.33;;;0.80;;
70320;SDS011;61127;55.826;37.046;2022-07-21T06:47:02;1.52;;;0.73;;
70320;SDS011;61127;55.826;37.046;2022-07-21T06:49:30;1.60;;;0.70;;
70320;SDS011;61127;55.826;37.046;2022-07-21T06:51:59;2.30;;;0.80;;
70320;SDS011;61127;55.826;37.046;2022-07-21T06:54:25;0.80;;;0.70;;
70320;SDS011;61127;55.826;37.046;2022-07-21T06:56:51;1.23;;;0.63;;
70320;SDS011;61127;55.826;37.046;2022-07-21T06:59:17;1.13;;;0.90;;
70320;SDS011;61127;55.826;37.046;2022-07-21T07:01:43;1.92;;;0.70;;
70320;SDS011;61127;55.826;37.046;2022-07-21T07:04:10;1.95;;;0.80;;
70320;SDS011;61127;55.826;37.046;2022-07-21T07:06:36;0.97;;;0.90;;
70320;SDS011;61127;55.826;37.046;2022-07-21T07:09:03;1.50;;;0.90;;
70320;SDS011;61127;55.826;37.046;2022-07-21T07:11:29;2.38;;;0.93;;
70320;SDS011;61127;55.826;37.046;2022-07-21T07:13:55;0.82;;;0.80;;
70320;SDS011;61127;55.826;37.046;2022-07-21T07:16:21;4.03;;;0.80;;
70320;SDS011;61127;55.826;37.046;2022-07-21T07:18:47;0.80;;;0.70;;
70320;SDS011;61127;55.826;37.046;2022-07-21T07:21:13;1.70;;;0.90;;
70320;SDS011;61127;55.826;37.046;2022-07-21T07:23:39;1.25;;;0.80;;
70320;SDS011;61127;55.826;37.046;2022-07-21T07:26:05;0.77;;;0.77;;
70320;SDS011;61127;55.826;37.046;2022-07-21T07:28:32;1.15;;;0.80;;
70320;SDS011;61127;55.826;37.046;2022-07-21T07:30:58;1.65;;;1.10;;
70320;SDS011;61127;55.826;37.046;2022-07-21T07:33:25;1.08;;;0.80;;
70320;SDS011;61127;55.826;37.046;2022-07-21T07:35:52;1.00;;;0.90;;
70320;SDS011;61127;55.826;37.046;2022-07-21T07:38:21;2.72;;;0.90;;
70320;SDS011;61127;55.826;37.046;2022-07-21T07:40:47;1.30;;;0.93;;
70320;SDS011;61127;55.826;37.046;2022-07-21T07:43:14;2.25;;;1.00;;
70320;SDS011;61127;55.826;37.046;2022-07-21T07:45:40;0.90;;;0.88;;
70320;SDS011;61127;55.826;37.046;2022-07-21T07:48:06;1.30;;;0.70;;
70320;SDS011;61127;55.826;37.046;2022-07-21T07:50:32;2.75;;;0.80;;
70320;SDS011;61127;55.826;37.046;2022-07-21T07:53:00;1.77;;;0.80;;
70320;SDS011;61127;55.826;37.046;2022-07-21T07:55:26;1.35;;;0.90;;
70320;SDS011;61127;55.826;37.046;2022-07-21T07:57:52;0.90;;;0.70;;
70320;SDS011;61127;55.826;37.046;2022-07-21T08:00:18;0.70;;;0.70;;
70320;SDS011;61127;55.826;37.046;2022-07-21T08:02:47;1.08;;;0.90;;
70320;SDS011;61127;55.826;37.046;2022-07-21T08:05:13;1.98;;;0.77;;
70320;SDS011;61127;55.826;37.046;2022-07-21T08:07:39;2.75;;;0.80;;
70320;SDS011;61127;55.826;37.046;2022-07-21T08:10:07;1.53;;;0.87;;
70320;SDS011;61127;55.826;37.046;2022-07-21T08:12:37;2.38;;;0.90;;
70320;SDS011;61127;55.826;37.046;2022-07-21T08:15:03;2.22;;;0.90;;
70320;SDS011;61127;55.826;37.046;2022-07-21T08:17:30;4.53;;;1.00;;
70320;SDS011;61127;55.826;37.046;2022-07-21T08:19:56;2.92;;;1.15;;
70320;SDS011;61127;55.826;37.046;2022-07-21T08:22:24;0.90;;;0.90;;
70320;SDS011;61127;55.826;37.046;2022-07-21T08:24:50;1.10;;;0.90;;
70320;SDS011;61127;55.826;37.046;2022-07-21T08:27:16;1.98;;;0.80;;
70320;SDS011;61127;55.826;37.046;2022-07-21T08:29:42;1.65;;;0.90;;
70320;SDS011;61127;55.826;37.046;2022-07-21T08:32:09;3.25;;;1.00;;
70320;SDS011;61127;55.826;37.046;2022-07-21T08:34:36;3.30;;;1.40;;
70320;SDS011;61127;55.826;37.046;2022-07-21T08:37:02;3.75;;;1.55;;
70320;SDS011;61127;55.826;37.046;2022-07-21T08:39:28;2.33;;;1.33;;
70320;SDS011;61127;55.826;37.046;2022-07-21T08:41:54;3.33;;;1.30;;
70320;SDS011;61127;55.826;37.046;2022-07-21T08:44:20;2.10;;;1.20;;
70320;SDS011;61127;55.826;37.046;2022-07-21T08:46:48;2.00;;;1.35;;
70320;SDS011;61127;55.826;37.046;2022-07-21T08:49:15;3.15;;;1.20;;
70320;SDS011;61127;55.826;37.046;2022-07-21T08:51:47;1.90;;;1.00;;
70320;SDS011;61127;55.826;37.046;2022-07-21T08:54:19;1.98;;;1.10;;
70320;SDS011;61127;55.826;37.046;2022-07-21T08:56:46;2.63;;;1.20;;
70320;SDS011;61127;55.826;37.046;2022-07-21T08:59:12;1.58;;;1.10;;
70320;SDS011;61127;55.826;37.046;2022-07-21T09:01:39;3.45;;;1.23;;
70320;SDS011;61127;55.826;37.046;2022-07-21T09:04:19;1.60;;;1.25;;
70320;SDS011;61127;55.826;37.046;2022-07-21T09:06:57;2.30;;;1.15;;
70320;SDS011;61127;55.826;37.046;2022-07-21T09:09:34;2.07;;;1.30;;
70320;SDS011;61127;55.826;37.046;2022-07-21T09:12:02;3.95;;;1.30;;
70320;SDS011;61127;55.826;37.046;2022-07-21T09:14:30;2.60;;;0.90;;
70320;SDS011;61127;55.826;37.046;2022-07-21T09:16:59;2.17;;;0.90;;
70320;SDS011;61127;55.826;37.046;2022-07-21T09:19:35;1.73;;;0.88;;
70320;SDS011;61127;55.826;37.046;2022-07-21T09:22:11;1.30;;;1.20;;
70320;SDS011;61127;55.826;37.046;2022-07-21T09:24:38;2.22;;;1.20;;
70320;SDS011;61127;55.826;37.046;2022-07-21T09:27:09;2.92;;;1.20;;
70320;SDS011;61127;55.826;37.046;2022-07-21T09:34:46;2.97;;;1.00;;
70320;SDS011;61127;55.826;37.046;2022-07-21T09:37:14;3.00;;;1.20;;
70320;SDS011;61127;55.826;37.046;2022-07-21T09:39:45;0.98;;;0.98;;
70320;SDS011;61127;55.826;37.046;2022-07-21T09:42:24;1.33;;;1.08;;
70320;SDS011;61127;55.826;37.046;2022-07-21T09:47:22;2.47;;;1.17;;
70320;SDS011;61127;55.826;37.046;2022-07-21T09:49:54;3.70;;;1.10;;
70320;SDS011;61127;55.826;37.046;2022-07-21T09:54:49;1.90;;;1.00;;
70320;SDS011;61127;55.826;37.046;2022-07-21T09:57:16;1.00;;;0.90;;
70320;SDS011;61127;55.826;37.046;2022-07-21T09:59:49;1.80;;;1.10;;
70320;SDS011;61127;55.826;37.046;2022-07-21T10:02:21;1.88;;;1.20;;
70320;SDS011;61127;55.826;37.046;2022-07-21T10:04:58;1.77;;;1.40;;
70320;SDS011;61127;55.826;37.046;2022-07-21T10:07:29;1.75;;;1.50;;
70320;SDS011;61127;55.826;37.046;2022-07-21T10:09:56;1.40;;;1.30;;
70320;SDS011;61127;55.826;37.046;2022-07-21T10:12:24;2.07;;;1.40;;
70320;SDS011;61127;55.826;37.046;2022-07-21T10:14:52;1.20;;;1.10;;
70320;SDS011;61127;55.826;37.046;2022-07-21T10:17:19;1.40;;;1.30;;
70320;SDS011;61127;55.826;37.046;2022-07-21T10:19:49;1.45;;;1.30;;
70320;SDS011;61127;55.826;37.046;2022-07-21T10:25:25;2.17;;;1.30;;
70320;SDS011;61127;55.826;37.046;2022-07-21T10:30:41;1.83;;;1.10;;
70320;SDS011;61127;55.826;37.046;2022-07-21T10:33:09;1.95;;;1.10;;
70320;SDS011;61127;55.826;37.046;2022-07-21T10:35:39;1.88;;;0.80;;
70320;SDS011;61127;55.826;37.046;2022-07-21T10:38:12;1.73;;;1.33;;
70320;SDS011;61127;55.826;37.046;2022-07-21T10:40:52;1.55;;;1.33;;
70320;SDS011;61127;55.826;37.046;2022-07-21T10:45:52;1.95;;;1.10;;
70320;SDS011;61127;55.826;37.046;2022-07-21T10:51:07;1.93;;;1.00;;
70320;SDS011;61127;55.826;37.046;2022-07-21T10:53:37;2.13;;;1.65;;
70320;SDS011;61127;55.826;37.046;2022-07-21T10:56:05;2.33;;;1.50;;
70320;SDS011;61127;55.826;37.046;2022-07-21T10:58:32;1.73;;;1.63;;
70320;SDS011;61127;55.826;37.046;2022-07-21T11:01:06;1.80;;;1.70;;
70320;SDS011;61127;55.826;37.046;2022-07-21T11:03:43;2.70;;;2.00;;
70320;SDS011;61127;55.826;37.046;2022-07-21T11:06:23;1.90;;;1.80;;
70320;SDS011;61127;55.826;37.046;2022-07-21T11:08:51;2.45;;;1.30;;
70320;SDS011;61127;55.826;37.046;2022-07-21T11:11:30;1.27;;;1.15;;
70320;SDS011;61127;55.826;37.046;2022-07-21T11:14:00;1.90;;;1.10;;
70320;SDS011;61127;55.826;37.046;2022-07-21T11:21:58;2.50;;;1.60;;
70320;SDS011;61127;55.826;37.046;2022-07-21T11:24:27;2.33;;;2.00;;
70320;SDS011;61127;55.826;37.046;2022-07-21T11:27:04;2.03;;;1.80;;
70320;SDS011;61127;55.826;37.046;2022-07-21T11:29:35;1.50;;;1.10;;
70320;SDS011;61127;55.826;37.046;2022-07-21T11:32:03;3.65;;;1.42;;
70320;SDS011;61127;55.826;37.046;2022-07-21T11:35:04;1.58;;;1.00;;
70320;SDS011;61127;55.826;37.046;2022-07-21T11:40:00;1.55;;;1.00;;
70320;SDS011;61127;55.826;37.046;2022-07-21T11:42:29;1.63;;;1.00;;
70320;SDS011;61127;55.826;37.046;2022-07-21T11:44:56;1.10;;;1.00;;
70320;SDS011;61127;55.826;37.046;2022-07-21T11:47:23;2.42;;;1.10;;
70320;SDS011;61127;55.826;37.046;2022-07-21T11:49:53;1.83;;;1.17;;
70320;SDS011;61127;55.826;37.046;2022-07-21T11:52:24;1.30;;;1.20;;
70320;SDS011;61127;55.826;37.046;2022-07-21T11:54:55;2.57;;;1.10;;
70320;SDS011;61127;55.826;37.046;2022-07-21T11:57:23;2.00;;;1.17;;
70320;SDS011;61127;55.826;37.046;2022-07-21T11:59:51;3.63;;;1.00;;
70320;SDS011;61127;55.826;37.046;2022-07-21T12:04:58;4.88;;;1.35;;
70320;SDS011;61127;55.826;37.046;2022-07-21T12:07:26;3.77;;;1.20;;
70320;SDS011;61127;55.826;37.046;2022-07-21T12:09:56;3.10;;;1.50;;
70320;SDS011;61127;55.826;37.046;2022-07-21T12:12:44;2.13;;;1.50;;
70320;SDS011;61127;55.826;37.046;2022-07-21T12:15:14;6.35;;;1.80;;
70320;SDS011;61127;55.826;37.046;2022-07-21T12:17:54;3.55;;;1.73;;
70320;SDS011;61127;55.826;37.046;2022-07-21T12:20:28;3.33;;;1.73;;
70320;SDS011;61127;55.826;37.046;2022-07-21T12:22:57;1.73;;;1.50;;
70320;SDS011;61127;55.826;37.046;2022-07-21T12:25:34;3.65;;;1.70;;
70320;SDS011;61127;55.826;37.046;2022-07-21T12:28:06;2.25;;;1.50;;
70320;SDS011;61127;55.826;37.046;2022-07-21T12:30:43;2.90;;;1.60;;
70320;SDS011;61127;55.826;37.046;2022-07-21T12:33:12;2.90;;;1.57;;
70320;SDS011;61127;55.826;37.046;2022-07-21T12:35:39;4.95;;;1.60;;
70320;SDS011;61127;55.826;37.046;2022-07-21T12:38:11;2.58;;;1.50;;
70320;SDS011;61127;55.826;37.046;2022-07-21T12:40:39;2.47;;;1.40;;
70320;SDS011;61127;55.826;37.046;2022-07-21T12:48:52;2.70;;;1.30;;
70320;SDS011;61127;55.826;37.046;2022-07-21T12:51:13;2.47;;;1.30;;
70320;SDS011;61127;55.826;37.046;2022-07-21T12:53:45;3.55;;;1.25;;
70320;SDS011;61127;55.826;37.046;2022-07-21T12:56:17;3.33;;;1.77;;
70320;SDS011;61127;55.826;37.046;2022-07-21T12:58:50;6.03;;;1.60;;
70320;SDS011;61127;55.826;37.046;2022-07-21T13:01:17;2.00;;;1.50;;
70320;SDS011;61127;55.826;37.046;2022-07-21T13:03:45;2.00;;;1.40;;
70320;SDS011;61127;55.826;37.046;2022-07-21T13:06:12;2.50;;;1.33;;
70320;SDS011;61127;55.826;37.046;2022-07-21T13:08:40;2.70;;;1.40;;
70320;SDS011;61127;55.826;37.046;2022-07-21T13:11:07;3.90;;;1.50;;
70320;SDS011;61127;55.826;37.046;2022-07-21T13:13:34;2.67;;;1.38;;
70320;SDS011;61127;55.826;37.046;2022-07-21T13:16:01;2.03;;;1.30;;
70320;SDS011;61127;55.826;37.046;2022-07-21T13:18:27;2.05;;;1.50;;
70320;SDS011;61127;55.826;37.046;2022-07-21T13:20:54;2.88;;;1.55;;
70320;SDS011;61127;55.826;37.046;2022-07-21T13:23:21;3.30;;;1.40;;
70320;SDS011;61127;55.826;37.046;2022-07-21T13:25:47;6.38;;;1.75;;
70320;SDS011;61127;55.826;37.046;2022-07-21T13:28:14;3.30;;;1.60;;
70320;SDS011;61127;55.826;37.046;2022-07-21T13:30:41;4.50;;;1.70;;
70320;SDS011;61127;55.826;37.046;2022-07-21T13:33:08;3.22;;;1.60;;
70320;SDS011;61127;55.826;37.046;2022-07-21T13:35:34;3.37;;;1.70;;
70320;SDS011;61127;55.826;37.046;2022-07-21T13:38:00;3.80;;;1.90;;
70320;SDS011;61127;55.826;37.046;2022-07-21T13:40:27;3.35;;;1.70;;
70320;SDS011;61127;55.826;37.046;2022-07-21T13:42:54;1.50;;;1.40;;
70320;SDS011;61127;55.826;37.046;2022-07-21T13:45:21;4.07;;;1.50;;
70320;SDS011;61127;55.826;37.046;2022-07-21T13:47:47;1.73;;;1.10;;
70320;SDS011;61127;55.826;37.046;2022-07-21T13:50:13;2.65;;;1.13;;
70320;SDS011;61127;55.826;37.046;2022-07-21T13:52:40;2.33;;;1.50;;
70320;SDS011;61127;55.826;37.046;2022-07-21T13:55:07;1.60;;;1.23;;
70320;SDS011;61127;55.826;37.046;2022-07-21T13:57:34;1.75;;;1.60;;
70320;SDS011;61127;55.826;37.046;2022-07-21T14:00:03;1.50;;;1.30;;
70320;SDS011;61127;55.826;37.046;2022-07-21T14:02:32;3.92;;;1.30;;
70320;SDS011;61127;55.826;37.046;2022-07-21T14:04:59;2.47;;;1.35;;
70320;SDS011;61127;55.826;37.046;2022-07-21T14:07:25;1.58;;;1.40;;
70320;SDS011;61127;55.826;37.046;2022-07-21T14:09:51;2.60;;;1.42;;
70320;SDS011;61127;55.826;37.046;2022-07-21T14:12:18;2.90;;;1.53;;
70320;SDS011;61127;55.826;37.046;2022-07-21T14:14:45;3.25;;;1.30;;
70320;SDS011;61127;55.826;37.046;2022-07-21T14:17:13;3.85;;;1.30;;
70320;SDS011;61127;55.826;37.046;2022-07-21T14:19:39;3.05;;;1.38;;
70320;SDS011;61127;55.826;37.046;2022-07-21T14:22:07;2.25;;;1.10;;
70320;SDS011;61127;55.826;37.046;2022-07-21T14:24:37;3.10;;;1.30;;
70320;SDS011;61127;55.826;37.046;2022-07-21T14:27:22;2.55;;;1.17;;
70320;SDS011;61127;55.826;37.046;2022-07-21T14:29:48;2.08;;;1.40;;
70320;SDS011;61127;55.826;37.046;2022-07-21T14:32:15;2.45;;;1.40;;
70320;SDS011;61127;55.826;37.046;2022-07-21T14:34:44;1.83;;;1.50;;
70320;SDS011;61127;55.826;37.046;2022-07-21T14:37:11;2.50;;;1.48;;
70320;SDS011;61127;55.826;37.046;2022-07-21T14:39:37;2.95;;;1.30;;
70320;SDS011;61127;55.826;37.046;2022-07-21T14:42:03;2.70;;;1.58;;
70320;SDS011;61127;55.826;37.046;2022-07-21T14:44:29;2.42;;;1.40;;
70320;SDS011;61127;55.826;37.046;2022-07-21T14:46:55;1.77;;;1.20;;
70320;SDS011;61127;55.826;37.046;2022-07-21T14:49:21;2.85;;;1.48;;
70320;SDS011;61127;55.826;37.046;2022-07-21T14:51:48;2.22;;;1.20;;
70320;SDS011;61127;55.826;37.046;2022-07-21T14:54:15;2.25;;;1.27;;
70320;SDS011;61127;55.826;37.046;2022-07-21T14:56:41;3.27;;;1.50;;
70320;SDS011;61127;55.826;37.046;2022-07-21T14:59:06;2.58;;;1.23;;
70320;SDS011;61127;55.826;37.046;2022-07-21T15:01:33;2.53;;;1.27;;
70320;SDS011;61127;55.826;37.046;2022-07-21T15:04:00;3.33;;;1.20;;
70320;SDS011;61127;55.826;37.046;2022-07-21T15:06:26;2.97;;;1.10;;
70320;SDS011;61127;55.826;37.046;2022-07-21T15:08:52;1.70;;;1.10;;
70320;SDS011;61127;55.826;37.046;2022-07-21T15:11:18;3.17;;;1.10;;
70320;SDS011;61127;55.826;37.046;2022-07-21T15:13:45;3.17;;;1.03;;
70320;SDS011;61127;55.826;37.046;2022-07-21T15:16:11;3.45;;;1.00;;
70320;SDS011;61127;55.826;37.046;2022-07-21T15:18:37;1.70;;;1.30;;
70320;SDS011;61127;55.826;37.046;2022-07-21T15:21:04;2.17;;;1.10;;
70320;SDS011;61127;55.826;37.046;2022-07-21T15:23:30;5.30;;;1.30;;